KVRB/VRB METAR and TAF weather

Enter ICAO airport designator
Station Type Date Time Source
KVRB METAR 2019/08/24 06:53 UTC NOAA

KVRB 240653Z AUTO 14005KT 10SM CLR 27/24 A2994 RMK AO2 SLP136 T02670244


Station Type Date Time Source
KVRB Decoded METAR 2019/08/24 06:53 UTC NOAA

Station name not available
Aug 24, 2019 - 02:53 AM EDT / 2019.08.24 0653 UTC
Wind: from the SE (140 degrees) at 6 MPH (5 KT):0
Visibility: 10 mile(s):0
Sky conditions: clear
Temperature: 80.1 F (26.7 C)
Dew Point: 75.9 F (24.4 C)
Relative Humidity: 87%
Pressure (altimeter): 29.94 in. Hg (1013 hPa)
ob: KVRB 240653Z AUTO 14005KT 10SM CLR 27/24 A2994 RMK AO2 SLP136 T02670244
cycle: 7

Station Type Date Time Source
KVRB TAF 2019/08/24 06:27 UTC NOAA

TAF KVRB 240526Z 2406/2506 13009KT P6SM VCSH SCT020 BKN070
FM241400 12006KT P6SM VCSH SCT025 BKN090
TEMPO 2415/2418 3SM SHRA BKN020
FM241800 09012KT P6SM VCSH BKN035 BKN090
FM250000 11006KT P6SM VCSH SCT020 BKN040

Example: see airport list